createdAt,value
2019-03-03T00:00:46.548Z,98162.69
2019-03-03T00:03:18.564Z,98157.95
2019-03-03T00:05:50.605Z,98147.84
2019-03-03T00:08:24.540Z,98144.22
2019-03-03T00:10:56.531Z,98144.22
2019-03-03T00:13:28.626Z,98156.98
2019-03-03T00:16:00.636Z,98166.02
2019-03-03T00:18:32.626Z,98159.53
2019-03-03T00:21:04.605Z,98161.01
2019-03-03T00:23:36.644Z,98155.39
2019-03-03T00:26:08.639Z,98152.67
2019-03-03T00:28:40.674Z,98155.23
2019-03-03T00:31:15.683Z,98148.44
2019-03-03T00:33:47.681Z,98155.82
2019-03-03T00:36:20.265Z,98155.80
2019-03-03T00:39:05.973Z,98157.18
2019-03-03T00:42:06.622Z,98151.67
2019-03-03T00:44:53.627Z,98144.13
2019-03-03T00:47:34.665Z,98140.87
2019-03-03T00:50:17.541Z,98141.05
2019-03-03T00:53:00.512Z,98142.06
2019-03-03T00:55:43.781Z,98139.71
2019-03-03T00:58:38.188Z,98124.19
2019-03-03T01:01:24.538Z,98132.34
2019-03-03T01:04:31.259Z,98137.56
2019-03-03T01:07:25.709Z,98139.42
2019-03-03T01:10:20.232Z,98134.89
2019-03-03T01:12:59.945Z,98134.89
2019-03-03T01:15:57.315Z,98138.54
2019-03-03T01:18:39.396Z,98130.69
2019-03-03T01:21:30.990Z,98130.77
2019-03-03T01:24:34.724Z,98124.88
2019-03-03T01:27:06.705Z,98121.66
2019-03-03T01:29:38.984Z,98116.23
2019-03-03T01:32:10.964Z,98124.80
2019-03-03T01:34:42.908Z,98124.40
2019-03-03T01:37:14.892Z,98126.84
2019-03-03T01:39:46.847Z,98126.94
2019-03-03T01:42:18.873Z,98127.72
2019-03-03T01:44:50.846Z,98123.33
2019-03-03T01:47:22.833Z,98122.73
2019-03-03T01:49:54.821Z,98124.90
2019-03-03T01:52:26.815Z,98127.72
2019-03-03T01:54:58.773Z,98126.06
2019-03-03T01:57:30.768Z,98126.94
2019-03-03T02:00:03.054Z,98120.67
2019-03-03T02:02:35.047Z,98129.20
2019-03-03T02:05:07.066Z,98129.00
2019-03-03T02:07:39.075Z,98126.06
2019-03-03T02:10:11.029Z,98122.83
2019-03-03T02:12:43.059Z,98123.61
2019-03-03T02:15:15.115Z,98118.01
2019-03-03T02:17:47.096Z,98115.36
2019-03-03T02:20:19.074Z,98117.52
2019-03-03T02:22:51.057Z,98111.44
2019-03-03T02:25:23.061Z,98106.22
2019-03-03T02:27:55.042Z,98110.34
2019-03-03T02:30:27.018Z,98100.41
2019-03-03T02:32:58.972Z,98091.28
2019-03-03T02:35:31.006Z,98095.44
2019-03-03T02:38:03.008Z,98084.22
2019-03-03T02:40:34.999Z,98079.03
2019-03-03T02:43:07.025Z,98070.74
2019-03-03T02:45:39.013Z,98074.21
2019-03-03T02:48:10.966Z,98063.22
2019-03-03T02:50:42.955Z,98059.38
2019-03-03T02:53:14.912Z,98058.59
2019-03-03T02:55:46.881Z,98048.78
2019-03-03T02:58:18.854Z,98046.64
2019-03-03T03:00:56.448Z,98043.11
2019-03-03T03:03:28.446Z,98042.70
2019-03-03T03:06:22.783Z,98037.49
2019-03-03T03:09:12.937Z,98038.95
2019-03-03T03:12:11.287Z,98031.61
2019-03-03T03:14:59.220Z,98028.17
2019-03-03T03:17:46.017Z,98028.09
2019-03-03T03:20:36.536Z,98026.02
2019-03-03T03:23:26.969Z,98019.23
2019-03-03T03:26:13.917Z,98012.95
2019-03-03T03:29:05.482Z,98011.19
2019-03-03T03:31:49.295Z,98004.30
2019-03-03T03:34:28.767Z,98001.55
2019-03-03T03:37:12.887Z,98000.55
2019-03-03T03:40:04.433Z,97999.67
2019-03-03T03:43:05.168Z,98004.59
2019-03-03T03:46:11.835Z,98005.56
2019-03-03T03:48:55.952Z,98014.42
2019-03-03T03:51:47.541Z,98016.38
2019-03-03T03:54:37.998Z,98015.86
2019-03-03T03:57:29.589Z,98011.27
2019-03-03T04:00:24.218Z,98014.78
2019-03-03T04:03:21.914Z,98016.75
2019-03-03T04:06:28.566Z,98012.23
2019-03-03T04:09:11.561Z,98005.44
2019-03-03T04:11:57.232Z,98018.92
2019-03-03T04:14:44.555Z,98005.66
2019-03-03T04:17:39.130Z,98002.84
2019-03-03T04:20:39.641Z,97992.67
2019-03-03T04:23:40.429Z,97996.81
2019-03-03T04:26:34.759Z,98000.36
2019-03-03T04:29:25.823Z,97992.62
2019-03-03T04:32:03.176Z,97992.22
2019-03-03T04:34:49.404Z,97996.45
2019-03-03T04:37:43.769Z,97998.13
2019-03-03T04:40:35.322Z,97997.51
2019-03-03T04:43:19.973Z,97993.44
2019-03-03T04:46:01.937Z,97995.91
2019-03-03T04:48:46.615Z,97992.86
2019-03-03T04:51:34.155Z,97996.38
2019-03-03T04:54:15.119Z,97988.05
2019-03-03T04:57:03.742Z,97997.36
2019-03-03T04:59:55.297Z,97993.07
2019-03-03T05:02:54.303Z,97987.88
2019-03-03T05:05:42.974Z,97990.31
2019-03-03T05:08:20.086Z,97991.56
2019-03-03T05:11:02.748Z,97994.41
2019-03-03T05:13:50.909Z,97995.68
2019-03-03T05:16:36.763Z,97989.50
2019-03-03T05:19:13.874Z,97992.95
2019-03-03T05:21:45.817Z,97988.25
2019-03-03T05:24:17.831Z,97982.95
2019-03-03T05:26:49.786Z,97994.13
2019-03-03T05:29:21.762Z,97986.96
2019-03-03T05:31:53.727Z,97987.19
2019-03-03T05:34:25.709Z,97979.91
2019-03-03T05:36:57.683Z,97985.30
2019-03-03T05:39:29.666Z,97980.51
2019-03-03T05:42:01.623Z,97982.38
2019-03-03T05:44:33.617Z,97978.86
2019-03-03T05:47:05.632Z,97980.84
2019-03-03T05:49:37.605Z,97982.78
2019-03-03T05:52:09.595Z,97982.11
2019-03-03T05:54:41.560Z,97978.36
2019-03-03T05:57:13.535Z,97980.03
2019-03-03T05:59:45.540Z,97981.39
2019-03-03T06:02:17.527Z,97978.67
2019-03-03T06:04:49.520Z,97976.30
2019-03-03T06:07:21.518Z,97974.73
2019-03-03T06:09:53.470Z,97976.61
2019-03-03T06:12:25.477Z,97972.39
2019-03-03T06:14:57.449Z,97978.17
2019-03-03T06:17:29.461Z,97969.27
2019-03-03T06:20:01.453Z,97970.02
2019-03-03T06:22:33.435Z,97971.22
2019-03-03T06:25:05.454Z,97966.80
2019-03-03T06:27:37.437Z,97971.90
2019-03-03T06:30:10.874Z,97979.04
2019-03-03T06:32:42.879Z,97965.22
2019-03-03T06:35:14.866Z,97968.38
2019-03-03T06:37:46.852Z,97967.37
2019-03-03T06:40:18.830Z,97968.27
2019-03-03T06:42:50.850Z,97973.84
2019-03-03T06:45:22.835Z,97975.70
2019-03-03T06:47:54.808Z,97975.33
2019-03-03T06:50:26.822Z,97976.09
2019-03-03T06:52:58.802Z,97974.37
2019-03-03T06:55:30.794Z,97972.30
2019-03-03T06:58:02.836Z,97976.72
2019-03-03T07:00:34.819Z,97958.78
2019-03-03T07:03:06.838Z,97961.59
2019-03-03T07:05:38.832Z,97957.94
2019-03-03T07:08:10.857Z,97959.55
2019-03-03T07:10:42.824Z,97948.98
2019-03-03T07:13:14.823Z,97945.98
2019-03-03T07:15:46.793Z,97944.88
2019-03-03T07:18:18.821Z,97944.80
2019-03-03T07:20:50.826Z,97941.04
2019-03-03T07:23:22.827Z,97936.63
2019-03-03T07:25:54.820Z,97937.89
2019-03-03T07:28:26.871Z,97939.41
2019-03-03T07:30:58.871Z,97931.44
2019-03-03T07:33:32.604Z,97931.44
2019-03-03T07:36:04.596Z,97934.03
2019-03-03T07:38:36.593Z,97930.17
2019-03-03T07:41:08.618Z,97926.27
2019-03-03T07:43:40.645Z,97929.33
2019-03-03T07:46:12.668Z,97935.31
2019-03-03T07:48:44.650Z,97934.64
2019-03-03T07:51:16.673Z,97932.22
2019-03-03T07:53:48.673Z,97941.21
2019-03-03T07:56:20.711Z,97942.26
2019-03-03T07:58:52.718Z,97942.59
2019-03-03T08:01:24.743Z,97938.86
2019-03-03T08:03:56.718Z,97936.03
2019-03-03T08:06:28.721Z,97941.98
2019-03-03T08:09:00.733Z,97941.58
2019-03-03T08:11:32.753Z,97949.66
2019-03-03T08:14:04.741Z,97950.09
2019-03-03T08:16:36.742Z,97950.41
2019-03-03T08:19:08.748Z,97951.69
2019-03-03T08:21:40.807Z,97947.53
2019-03-03T08:24:12.796Z,97959.78
2019-03-03T08:26:44.796Z,97955.22
2019-03-03T08:29:16.769Z,97961.36
2019-03-03T08:31:48.804Z,97959.28
2019-03-03T08:34:20.819Z,97958.00
2019-03-03T08:36:52.802Z,97962.62
2019-03-03T08:39:24.801Z,97969.88
2019-03-03T08:42:15.052Z,97969.88
2019-03-03T08:45:24.971Z,97960.15
2019-03-03T08:48:19.467Z,97964.80
2019-03-03T08:51:02.062Z,97967.64
2019-03-03T08:54:05.632Z,97965.91
2019-03-03T08:56:55.845Z,97959.60
2019-03-03T08:59:39.697Z,97964.91
2019-03-03T09:02:24.288Z,97976.65
2019-03-03T09:05:18.640Z,97961.31
2019-03-03T09:08:10.290Z,97960.98
2019-03-03T09:11:13.954Z,97968.20
2019-03-03T09:14:11.810Z,97959.95
2019-03-03T09:16:52.578Z,97963.38
2019-03-03T09:19:59.545Z,97961.14
2019-03-03T09:22:50.104Z,97954.11
2019-03-03T09:25:40.533Z,97953.85
2019-03-03T09:28:25.151Z,97961.94
2019-03-03T09:31:06.140Z,97966.19
2019-03-03T09:34:00.433Z,97972.40
2019-03-03T09:36:52.053Z,97965.83
2019-03-03T09:39:43.659Z,97968.66
2019-03-03T09:42:22.771Z,97978.14
2019-03-03T09:45:12.279Z,97974.20
2019-03-03T09:48:02.577Z,97978.64
2019-03-03T09:50:43.680Z,97982.11
2019-03-03T09:53:38.052Z,97985.38
2019-03-03T09:56:28.272Z,97978.00
2019-03-03T09:59:13.934Z,97971.30
2019-03-03T10:02:17.782Z,97975.77
2019-03-03T10:05:07.943Z,97973.47
2019-03-03T10:07:47.900Z,97969.30
2019-03-03T10:10:54.634Z,97970.34
2019-03-03T10:13:44.804Z,97957.91
2019-03-03T10:16:45.446Z,97955.59
2019-03-03T10:19:42.849Z,97960.55
2019-03-03T10:22:21.928Z,97950.00
2019-03-03T10:25:19.545Z,97958.81
2019-03-03T10:27:57.096Z,97960.41
2019-03-03T10:30:37.370Z,97964.90
2019-03-03T10:33:37.120Z,97958.97
2019-03-03T10:36:28.733Z,97961.84
2019-03-03T10:39:19.372Z,97962.47
2019-03-03T10:42:11.010Z,97961.38
2019-03-03T10:45:18.107Z,97966.30
2019-03-03T10:48:09.707Z,97958.14
2019-03-03T10:51:04.226Z,97952.67
2019-03-03T10:54:01.885Z,97952.70
2019-03-03T10:56:48.491Z,97951.52
2019-03-03T10:59:54.777Z,97940.50
2019-03-03T11:02:30.912Z,97943.98
2019-03-03T11:05:19.026Z,97941.70
2019-03-03T11:08:10.177Z,97944.77
2019-03-03T11:11:16.918Z,97946.66
2019-03-03T11:14:03.117Z,97943.75
2019-03-03T11:16:46.856Z,97938.47
2019-03-03T11:19:44.415Z,97934.73
2019-03-03T11:22:27.974Z,97933.06
2019-03-03T11:25:09.833Z,97939.59
2019-03-03T11:27:56.817Z,97936.21
2019-03-03T11:31:03.762Z,97940.84
2019-03-03T11:34:09.738Z,97939.88
2019-03-03T11:37:01.384Z,97931.16
2019-03-03T11:39:51.247Z,97925.09
2019-03-03T11:42:28.400Z,97914.05
2019-03-03T11:45:18.834Z,97906.39
2019-03-03T11:48:09.182Z,97905.30
2019-03-03T11:51:06.584Z,97906.66
2019-03-03T11:53:46.905Z,97899.08
2019-03-03T11:56:41.567Z,97889.83
2019-03-03T11:59:19.489Z,97884.27
2019-03-03T12:02:09.930Z,97882.00
2019-03-03T12:04:54.867Z,97885.59
2019-03-03T12:07:45.073Z,97875.86
2019-03-03T12:10:35.600Z,97877.27
2019-03-03T12:13:26.081Z,97865.84
2019-03-03T12:16:05.611Z,97848.64
2019-03-03T12:19:09.510Z,97839.40
2019-03-03T12:22:13.064Z,97837.53
2019-03-03T12:25:06.101Z,97833.08
2019-03-03T12:28:12.777Z,97838.51
2019-03-03T12:31:22.628Z,97832.48
2019-03-03T12:34:07.099Z,97822.05
2019-03-03T12:36:45.563Z,97818.43
2019-03-03T12:39:21.925Z,97818.22
2019-03-03T12:42:03.647Z,97814.33
2019-03-03T12:44:45.078Z,97818.19
2019-03-03T12:47:24.114Z,97808.91
2019-03-03T12:50:08.688Z,97804.52
2019-03-03T12:53:15.654Z,97793.45
2019-03-03T12:56:04.600Z,97796.51
2019-03-03T12:58:45.067Z,97794.48
2019-03-03T13:01:35.553Z,97792.16
2019-03-03T13:04:30.265Z,97784.56
2019-03-03T13:07:20.767Z,97776.66
2019-03-03T13:10:12.336Z,97773.95
2019-03-03T13:12:53.254Z,97760.36
2019-03-03T13:15:47.861Z,97753.52
2019-03-03T13:18:45.730Z,97758.36
2019-03-03T13:21:33.195Z,97750.02
2019-03-03T13:24:27.759Z,97744.80
2019-03-03T13:27:18.148Z,97736.58
2019-03-03T13:30:16.067Z,97727.97
2019-03-03T13:33:10.825Z,97730.73
2019-03-03T13:36:02.905Z,97721.80
2019-03-03T13:39:01.845Z,97714.20
2019-03-03T13:41:44.742Z,97715.14
2019-03-03T13:44:16.950Z,97708.66
2019-03-03T13:46:49.185Z,97708.45
2019-03-03T13:49:23.086Z,97705.83
2019-03-03T13:51:55.150Z,97712.09
2019-03-03T13:54:27.218Z,97706.70
2019-03-03T13:56:59.271Z,97704.92
2019-03-03T13:59:31.355Z,97713.05
2019-03-03T14:02:06.523Z,97715.20
2019-03-03T14:04:38.605Z,97708.71
2019-03-03T14:07:10.679Z,97709.01
2019-03-03T14:09:42.759Z,97702.20
2019-03-03T14:12:14.767Z,97692.58
2019-03-03T14:14:46.892Z,97696.31
2019-03-03T14:17:20.725Z,97688.66
2019-03-03T14:19:52.881Z,97687.81
2019-03-03T14:22:24.891Z,97678.81
2019-03-03T14:24:57.006Z,97667.59
2019-03-03T14:27:30.103Z,97674.72
2019-03-03T14:30:02.193Z,97674.30
2019-03-03T14:32:34.230Z,97662.64
2019-03-03T14:35:07.764Z,97664.48
2019-03-03T14:37:39.768Z,97667.38
2019-03-03T14:40:12.857Z,97664.84
2019-03-03T14:42:44.879Z,97662.03
2019-03-03T14:45:17.102Z,97653.52
2019-03-03T14:47:49.124Z,97655.56
2019-03-03T14:50:21.280Z,97647.10
2019-03-03T14:52:53.315Z,97635.91
2019-03-03T14:55:25.421Z,97640.95
2019-03-03T14:57:57.464Z,97632.84
2019-03-03T15:00:30.682Z,97626.38
2019-03-03T15:03:04.979Z,97616.13
2019-03-03T15:05:37.186Z,97613.33
2019-03-03T15:08:09.314Z,97599.78
2019-03-03T15:10:43.280Z,97603.03
2019-03-03T15:13:16.139Z,97598.12
2019-03-03T15:15:50.090Z,97603.95
2019-03-03T15:18:22.183Z,97609.09
2019-03-03T15:20:54.410Z,97607.39
2019-03-03T15:23:26.589Z,97600.69
2019-03-03T15:25:58.593Z,97604.28
2019-03-03T15:28:30.779Z,97608.63
2019-03-03T15:31:03.894Z,97596.46
2019-03-03T15:33:35.985Z,97603.25
2019-03-03T15:36:08.215Z,97611.90
2019-03-03T15:38:40.260Z,97604.95
2019-03-03T15:41:12.417Z,97607.90
2019-03-03T15:43:44.561Z,97607.29
2019-03-03T15:46:16.683Z,97596.85
2019-03-03T15:48:48.764Z,97590.66
2019-03-03T15:51:20.781Z,97586.80
2019-03-03T15:53:52.832Z,97586.89
2019-03-03T15:56:24.864Z,97581.41
2019-03-03T15:58:56.914Z,97573.22
2019-03-03T16:01:30.544Z,97567.66
2019-03-03T16:04:02.736Z,97563.02
2019-03-03T16:06:34.756Z,97561.98
2019-03-03T16:09:09.809Z,97556.97
2019-03-03T16:11:42.028Z,97565.13
2019-03-03T16:14:14.245Z,97567.68
2019-03-03T16:16:46.379Z,97569.06
2019-03-03T16:19:18.423Z,97563.22
2019-03-03T16:21:50.564Z,97556.36
2019-03-03T16:24:22.657Z,97557.40
2019-03-03T16:26:54.818Z,97558.56
2019-03-03T16:29:26.886Z,97552.11
2019-03-03T16:31:58.916Z,97551.08
2019-03-03T16:34:30.957Z,97548.34
2019-03-03T16:37:03.191Z,97552.95
2019-03-03T16:39:35.203Z,97539.36
2019-03-03T16:42:09.074Z,97536.34
2019-03-03T16:44:41.126Z,97533.95
2019-03-03T16:47:15.007Z,97522.73
2019-03-03T16:49:47.039Z,97532.48
2019-03-03T16:52:19.080Z,97514.62
2019-03-03T16:54:51.126Z,97512.05
2019-03-03T16:57:23.178Z,97502.66
2019-03-03T16:59:55.275Z,97493.47
2019-03-03T17:02:27.325Z,97493.34
2019-03-03T17:04:59.372Z,97487.39
2019-03-03T17:07:31.441Z,97480.69
2019-03-03T17:10:03.889Z,97477.30
2019-03-03T17:12:35.954Z,97479.86
2019-03-03T17:15:50.055Z,97485.81
2019-03-03T17:18:22.088Z,97487.95
2019-03-03T17:20:54.111Z,97479.39
2019-03-03T17:23:26.178Z,97482.03
2019-03-03T17:25:58.353Z,97488.09
2019-03-03T17:28:30.469Z,97480.56
2019-03-03T17:31:02.478Z,97480.59
2019-03-03T17:33:34.576Z,97476.16
2019-03-03T17:36:06.681Z,97472.39
2019-03-03T17:38:38.701Z,97468.55
2019-03-03T17:41:10.754Z,97476.28
2019-03-03T17:43:42.864Z,97467.27
2019-03-03T17:46:14.943Z,97464.23
2019-03-03T17:48:47.015Z,97473.13
2019-03-03T17:51:19.054Z,97476.25
2019-03-03T17:53:51.104Z,97487.22
2019-03-03T17:56:23.114Z,97486.29
2019-03-03T17:58:55.209Z,97487.93
2019-03-03T18:01:27.279Z,97485.61
2019-03-03T18:03:59.351Z,97479.94
2019-03-03T18:06:38.520Z,97478.89
2019-03-03T18:09:26.958Z,97480.04
2019-03-03T18:11:58.947Z,97490.48
2019-03-03T18:14:31.058Z,97490.62
2019-03-03T18:17:03.091Z,97490.81
2019-03-03T18:19:35.181Z,97494.37
2019-03-03T18:22:07.232Z,97489.85
2019-03-03T18:24:39.285Z,97487.48
2019-03-03T18:27:11.362Z,97487.63
2019-03-03T18:29:43.476Z,97481.17
2019-03-03T18:32:15.480Z,97483.88
2019-03-03T18:34:47.526Z,97482.59
2019-03-03T18:37:19.574Z,97479.54
2019-03-03T18:39:52.194Z,97479.59
2019-03-03T18:42:24.209Z,97469.06
2019-03-03T18:44:56.317Z,97473.68
2019-03-03T18:47:28.358Z,97457.49
2019-03-03T18:50:00.472Z,97458.03
2019-03-03T18:52:32.506Z,97457.33
2019-03-03T18:55:05.550Z,97445.95
2019-03-03T18:57:37.660Z,97439.42
2019-03-03T19:00:11.980Z,97449.38
2019-03-03T19:03:24.877Z,97463.39
2019-03-03T19:05:56.955Z,97463.45
2019-03-03T19:08:30.425Z,97463.50
2019-03-03T19:11:03.159Z,97464.63
2019-03-03T19:13:35.690Z,97460.23
2019-03-03T19:16:09.211Z,97449.05
2019-03-03T19:18:41.328Z,97455.38
2019-03-03T19:21:13.435Z,97451.05
2019-03-03T19:23:45.476Z,97460.41
2019-03-03T19:26:19.040Z,97465.28
2019-03-03T19:28:51.700Z,97470.24
2019-03-03T19:31:23.793Z,97473.05
2019-03-03T19:33:56.554Z,97472.91
2019-03-03T19:36:28.595Z,97483.38
2019-03-03T19:39:00.736Z,97476.44
2019-03-03T19:41:32.835Z,97470.05
2019-03-03T19:44:04.902Z,97476.84
2019-03-03T19:46:37.013Z,97473.47
2019-03-03T19:49:09.086Z,97460.86
2019-03-03T19:51:41.248Z,97460.23
2019-03-03T19:54:13.331Z,97452.42
2019-03-03T19:56:45.445Z,97445.58
2019-03-03T19:59:19.292Z,97440.69
2019-03-03T20:01:51.476Z,97438.23
2019-03-03T20:04:43.072Z,97425.42
2019-03-03T20:07:34.561Z,97403.73
2019-03-03T20:10:07.699Z,97403.73
2019-03-03T20:12:39.775Z,97408.62
2019-03-03T20:15:11.890Z,97394.83
2019-03-03T20:17:44.021Z,97391.61
2019-03-03T20:20:16.187Z,97379.34
2019-03-03T20:22:48.289Z,97380.38
2019-03-03T20:25:20.370Z,97374.23
2019-03-03T20:27:52.414Z,97373.42
2019-03-03T20:30:24.812Z,97366.42
2019-03-03T20:32:56.968Z,97358.36
2019-03-03T20:35:29.103Z,97358.36
2019-03-03T20:38:03.761Z,97357.40
2019-03-03T20:40:35.861Z,97357.49
2019-03-03T20:43:07.972Z,97353.97
2019-03-03T20:45:40.183Z,97356.37
2019-03-03T20:48:12.339Z,97355.72
2019-03-03T20:50:44.514Z,97350.96
2019-03-03T20:53:16.574Z,97351.27
2019-03-03T20:55:48.630Z,97352.30
2019-03-03T20:58:20.680Z,97352.36
2019-03-03T21:00:55.157Z,97355.31
2019-03-03T21:03:27.260Z,97349.34
2019-03-03T21:05:59.420Z,97348.06
2019-03-03T21:08:33.294Z,97345.19
2019-03-03T21:11:05.454Z,97336.98
2019-03-03T21:13:37.490Z,97336.42
2019-03-03T21:16:09.575Z,97326.72
2019-03-03T21:18:41.649Z,97321.77
2019-03-03T21:21:13.708Z,97320.80
2019-03-03T21:23:45.804Z,97317.28
2019-03-03T21:26:17.862Z,97312.98
2019-03-03T21:28:49.854Z,97319.71
2019-03-03T21:31:21.930Z,97307.27
2019-03-03T21:33:53.927Z,97304.06
2019-03-03T21:36:26.006Z,97301.51
2019-03-03T21:38:58.041Z,97288.44
2019-03-03T21:41:30.494Z,97293.55
2019-03-03T21:44:02.518Z,97292.11
2019-03-03T21:46:35.152Z,97289.97
2019-03-03T21:49:07.227Z,97287.41
2019-03-03T21:51:39.245Z,97277.12
2019-03-03T21:54:11.333Z,97274.25
2019-03-03T21:56:43.374Z,97259.91
2019-03-03T21:59:15.648Z,97259.76
2019-03-03T22:01:47.702Z,97230.37
2019-03-03T22:04:19.795Z,97237.20
2019-03-03T22:06:51.805Z,97239.12
2019-03-03T22:09:23.849Z,97234.02
2019-03-03T22:11:55.828Z,97232.09
2019-03-03T22:14:27.916Z,97227.19
2019-03-03T22:16:59.908Z,97231.88
2019-03-03T22:19:31.942Z,97235.20
2019-03-03T22:22:04.100Z,97226.67
2019-03-03T22:24:36.168Z,97228.11
2019-03-03T22:27:08.179Z,97227.81
2019-03-03T22:29:40.324Z,97231.49
2019-03-03T22:32:12.310Z,97235.48
2019-03-03T22:34:44.317Z,97235.48
2019-03-03T22:37:16.399Z,97220.80
2019-03-03T22:39:48.465Z,97216.18
2019-03-03T22:42:20.442Z,97204.41
2019-03-03T22:44:52.448Z,97191.66
2019-03-03T22:47:24.472Z,97181.14
2019-03-03T22:49:56.462Z,97176.84
2019-03-03T22:52:28.425Z,97167.39
2019-03-03T22:55:00.443Z,97171.55
2019-03-03T22:57:32.445Z,97165.83
2019-03-03T23:00:13.111Z,97163.84
2019-03-03T23:02:45.121Z,97161.75
2019-03-03T23:05:25.289Z,97152.22
2019-03-03T23:08:16.110Z,97155.83
2019-03-03T23:11:26.580Z,97150.52
2019-03-03T23:14:52.817Z,97136.22
2019-03-03T23:18:06.162Z,97124.77
2019-03-03T23:21:13.293Z,97108.76
2019-03-03T23:24:30.961Z,97104.37
2019-03-03T23:27:03.061Z,97101.52
2019-03-03T23:29:35.062Z,97094.67
2019-03-03T23:32:07.064Z,97091.16
2019-03-03T23:34:39.055Z,97084.52
2019-03-03T23:37:11.087Z,97075.84
2019-03-03T23:39:43.099Z,97067.83
2019-03-03T23:42:15.187Z,97065.48
2019-03-03T23:44:47.184Z,97063.11
2019-03-03T23:47:19.225Z,97067.06
2019-03-03T23:49:51.205Z,97055.52
2019-03-03T23:52:23.203Z,97056.43
2019-03-03T23:54:55.195Z,97066.53
2019-03-03T23:57:27.221Z,97063.27
2019-03-03T23:59:59.177Z,97065.66
